Time;durP1;ratioP1;P1;durP2;ratioP2;P2;SDS_P1;SDS_P2;PMS_P1;PMS_P2;Temp;Humidity;BMP_temperature;BMP_pressure;BME280_temperature;BME280_humidity;BME280_pressure;Samples;Min_cycle;Max_cycle;Signal;HPM_P1;HPM_P2
2022/12/07 00:01:27;;;;;;;34.30;27.90;;;;;;;2.13;100.00;101648.84;5063201;28;20020;-80
2022/12/07 00:04:00;;;;;;;33.90;26.85;;;;;;;2.12;100.00;101644.47;5062328;28;20032;-79
2022/12/07 00:06:26;;;;;;;37.90;28.25;;;;;;;2.18;100.00;101652.34;5063039;28;20032;-80
2022/12/07 00:08:51;;;;;;;37.65;28.85;;;;;;;2.19;100.00;101648.84;5064508;28;20039;-80
2022/12/07 00:11:21;;;;;;;37.63;29.10;;;;;;;2.16;100.00;101647.06;5065610;28;20718;-80
2022/12/07 00:13:50;;;;;;;35.45;26.83;;;;;;;2.20;100.00;101650.56;5061398;28;20052;-80
2022/12/07 00:16:18;;;;;;;33.03;26.77;;;;;;;2.12;100.00;101639.22;5065878;28;20044;-80
2022/12/07 00:18:44;;;;;;;33.70;25.92;;;;;;;2.06;100.00;101639.25;5068465;28;20040;-80
2022/12/07 00:21:15;;;;;;;30.20;24.75;;;;;;;1.99;100.00;101641.88;5068499;28;20589;-78
2022/12/07 00:23:42;;;;;;;38.22;27.27;;;;;;;1.97;100.00;101633.16;5068573;28;20044;-81
2022/12/07 00:26:10;;;;;;;38.28;28.05;;;;;;;1.96;100.00;101646.25;5067634;28;20036;-79
2022/12/07 00:28:37;;;;;;;33.05;27.27;;;;;;;1.86;100.00;101641.91;5067658;28;20389;-79
2022/12/07 00:31:10;;;;;;;36.60;26.92;;;;;;;1.88;100.00;101642.78;5072363;28;20043;-80
2022/12/07 00:33:36;;;;;;;;;;;;;;;1.80;100.00;101627.06;5071408;28;20048;-80
2022/12/07 00:36:05;;;;;;;38.10;28.02;;;;;;;1.77;100.00;101629.69;5071791;28;19912;-79
2022/12/07 00:38:33;;;;;;;39.13;27.27;;;;;;;1.75;100.00;101626.19;5051327;28;20052;-80
2022/12/07 00:41:01;;;;;;;38.88;28.50;;;;;;;1.70;100.00;101623.56;5066659;28;20040;-80
2022/12/07 00:43:27;;;;;;;40.83;29.20;;;;;;;1.70;100.00;101628.81;5065939;28;20029;-79
2022/12/07 00:45:53;;;;;;;42.47;28.38;;;;;;;1.64;100.00;101623.59;5068102;28;20341;-79
2022/12/07 00:48:19;;;;;;;39.40;28.02;;;;;;;1.60;100.00;101611.34;5066630;28;20025;-80
2022/12/07 00:50:44;;;;;;;31.17;24.85;;;;;;;1.53;100.00;101619.22;5067314;28;20043;-80
2022/12/07 00:53:10;;;;;;;34.25;27.63;;;;;;;1.54;100.00;101624.47;5065954;28;20568;-80
2022/12/07 00:55:36;;;;;;;35.47;26.70;;;;;;;1.53;100.00;101619.22;5062088;28;20028;-80
2022/12/07 00:58:01;;;;;;;33.55;26.63;;;;;;;1.39;100.00;101609.63;5067813;28;20059;-80
2022/12/07 01:00:26;;;;;;;34.85;28.23;;;;;;;1.47;100.00;101618.38;5068112;28;20036;-80
2022/12/07 01:02:52;;;;;;;34.53;27.15;;;;;;;1.49;100.00;101618.34;5065542;28;20547;-80
2022/12/07 01:05:18;;;;;;;34.53;27.20;;;;;;;1.54;100.00;101623.59;5065899;28;20024;-80
2022/12/07 01:07:43;;;;;;;41.58;29.52;;;;;;;1.45;100.00;101612.25;5067717;28;20027;-80
2022/12/07 01:10:09;;;;;;;38.42;28.02;;;;;;;1.52;100.00;101617.50;5067653;28;20066;-80
2022/12/07 01:12:34;;;;;;;39.33;29.17;;;;;;;1.50;100.00;101617.47;5062927;28;20047;-80
2022/12/07 01:14:59;;;;;;;42.22;30.60;;;;;;;1.54;100.00;101616.59;5063634;28;20028;-80
2022/12/07 01:17:25;;;;;;;41.35;28.70;;;;;;;1.60;100.00;101626.22;5047442;28;20029;-80
2022/12/07 01:19:50;;;;;;;37.05;29.15;;;;;;;1.59;100.00;101622.75;5048220;28;20021;-79
2022/12/07 01:22:15;;;;;;;36.10;28.20;;;;;;;1.57;100.00;101621.84;5057124;28;20037;-80
2022/12/07 01:24:41;;;;;;;37.67;28.15;;;;;;;1.61;100.00;101627.97;5067336;28;20469;-79
2022/12/07 01:27:06;;;;;;;38.30;28.73;;;;;;;1.58;100.00;101625.34;5068638;28;20492;-80
2022/12/07 01:29:31;;;;;;;38.72;29.40;;;;;;;1.63;100.00;101626.19;5068692;28;20024;-79
2022/12/07 01:31:56;;;;;;;36.22;27.60;;;;;;;1.66;100.00;101620.97;5062094;28;20048;-79
2022/12/07 01:34:22;;;;;;;36.35;28.58;;;;;;;1.71;100.00;101624.44;5056512;28;20045;-78
2022/12/07 01:36:47;;;;;;;33.75;27.45;;;;;;;1.72;100.00;101620.97;5067475;28;20020;-79
2022/12/07 01:39:13;;;;;;;39.05;27.08;;;;;;;1.74;100.00;101621.81;5065328;28;20099;-78
2022/12/07 01:41:40;;;;;;;33.00;26.67;;;;;;;1.78;100.00;101631.44;5060917;28;20032;-79
2022/12/07 01:44:27;;;;;;;31.67;26.80;;;;;;;1.80;100.00;101627.06;5065700;28;20028;-79
2022/12/07 01:46:55;;;;;;;36.10;27.38;;;;;;;1.84;100.00;101628.81;5067109;28;20504;-80
2022/12/07 01:49:24;;;;;;;36.45;27.08;;;;;;;1.86;100.00;101631.41;5069966;28;20021;-80
2022/12/07 01:51:52;;;;;;;39.17;27.52;;;;;;;1.84;100.00;101610.44;5062596;28;20038;-80
2022/12/07 01:54:20;;;;;;;35.05;26.55;;;;;;;1.87;100.00;101618.28;5053619;28;20035;-81
2022/12/07 01:56:51;;;;;;;37.38;26.70;;;;;;;1.84;100.00;101631.44;5067716;28;20067;-81
2022/12/07 01:59:20;;;;;;;37.95;25.70;;;;;;;1.86;100.00;101626.16;5066496;28;20034;-81
2022/12/07 02:01:45;;;;;;;32.70;26.38;;;;;;;1.89;100.00;101620.91;5065967;28;20028;-80
2022/12/07 02:04:11;;;;;;;37.53;28.25;;;;;;;1.99;100.00;101625.25;5067389;28;20032;-79
2022/12/07 02:06:37;;;;;;;36.30;28.58;;;;;;;2.06;100.00;101628.75;5068140;28;20043;-79
2022/12/07 02:09:02;;;;;;;38.03;28.05;;;;;;;2.03;100.00;101613.88;5070696;28;20116;-79
2022/12/07 02:11:28;;;;;;;33.50;26.33;;;;;;;2.08;100.00;101612.09;5067514;28;20107;-79
2022/12/07 02:13:54;;;;;;;33.78;27.05;;;;;;;2.11;100.00;101616.47;5066116;28;20055;-79
2022/12/07 02:16:40;;;;;;;34.83;26.17;;;;;;;2.12;100.00;101618.22;5064471;28;20032;-80
2022/12/07 02:19:34;;;;;;;32.25;24.77;;;;;;;2.09;100.00;101607.72;5067880;28;20130;-79
2022/12/07 02:22:29;;;;;;;30.50;24.05;;;;;;;2.09;100.00;101610.34;5066996;28;20040;-80
2022/12/07 02:25:04;;;;;;;29.38;23.17;;;;;;;2.04;100.00;101604.22;5064878;28;20063;-79
2022/12/07 02:27:48;;;;;;;30.85;24.48;;;;;;;1.97;100.00;101606.91;5059227;28;20037;-78
2022/12/07 02:30:15;;;;;;;;;;;;;;;1.92;100.00;101623.50;5049852;28;20059;-79
2022/12/07 02:32:54;;;;;;;30.88;22.88;;;;;;;1.87;100.00;101620.91;5051035;28;19923;-80
2022/12/07 02:35:28;;;;;;;31.25;24.00;;;;;;;1.87;100.00;101620.91;5053709;28;20028;-80
2022/12/07 02:38:11;;;;;;;33.90;24.25;;;;;;;1.85;100.00;101608.69;5066042;28;20032;-80
2022/12/07 02:40:47;;;;;;;33.30;24.23;;;;;;;1.84;100.00;101614.78;5064106;28;20040;-80
2022/12/07 02:43:18;;;;;;;33.15;24.40;;;;;;;1.79;100.00;101612.19;5065396;28;20039;-80
2022/12/07 02:45:45;;;;;;;31.55;22.63;;;;;;;1.73;100.00;101615.69;5067389;28;20052;-79
2022/12/07 02:48:15;;;;;;;30.45;22.20;;;;;;;1.64;100.00;101602.59;5066537;28;20538;-80
2022/12/07 02:50:51;;;;;;;32.83;21.55;;;;;;;1.57;100.00;101610.47;5062391;28;20083;-79
2022/12/07 02:53:36;;;;;;;30.45;22.27;;;;;;;1.49;100.00;101611.34;5066889;28;20084;-80
2022/12/07 02:56:31;;;;;;;31.15;22.65;;;;;;;1.48;100.00;101601.75;5068318;28;20098;-80
2022/12/07 02:59:21;;;;;;;31.50;22.45;;;;;;;1.44;100.00;101607.00;5067387;28;20044;-80
2022/12/07 03:02:05;;;;;;;31.50;22.60;;;;;;;1.37;100.00;101608.75;5054217;28;20037;-80
2022/12/07 03:05:01;;;;;;;33.72;22.52;;;;;;;1.33;100.00;101614.00;5063622;28;20059;-80
2022/12/07 03:07:44;;;;;;;31.38;21.98;;;;;;;1.33;100.00;101627.97;5064809;28;20040;-80
2022/12/07 03:10:27;;;;;;;28.23;23.77;;;;;;;1.42;100.00;101616.59;5066050;28;20063;-79
2022/12/07 03:13:11;;;;;;;37.60;24.52;;;;;;;1.49;100.00;101613.97;5065612;28;20036;-80
2022/12/07 03:15:45;;;;;;;36.25;25.40;;;;;;;1.58;100.00;101614.84;5066544;28;20040;-79
2022/12/07 03:18:15;;;;;;;34.53;24.88;;;;;;;1.63;100.00;101610.47;5053429;28;20032;-80
2022/12/07 03:20:43;;;;;;;34.63;24.30;;;;;;;1.64;100.00;101620.97;5050428;28;20016;-80
2022/12/07 03:23:10;;;;;;;31.90;23.25;;;;;;;1.68;100.00;101612.22;5066047;28;20025;-80
2022/12/07 03:25:40;;;;;;;27.08;21.73;;;;;;;1.67;100.00;101607.84;5065885;28;20023;-81
2022/12/07 03:28:07;;;;;;;27.02;22.15;;;;;;;1.69;100.00;101611.34;5065322;28;20544;-80
2022/12/07 03:30:35;;;;;;;26.25;20.55;;;;;;;1.70;100.00;101609.56;5062592;28;20074;-81
2022/12/07 03:33:24;;;;;;;30.50;20.70;;;;;;;1.70;100.00;101605.19;5065155;28;20072;-80
2022/12/07 03:36:08;;;;;;;26.15;19.25;;;;;;;1.70;100.00;101602.56;5065055;28;20043;-81
2022/12/07 03:38:42;;;;;;;25.08;19.02;;;;;;;1.72;100.00;101602.59;5063164;28;20086;-80
2022/12/07 03:41:10;;;;;;;27.90;19.70;;;;;;;1.76;100.00;101601.72;5061998;28;20315;-80
2022/12/07 03:43:36;;;;;;;27.00;20.05;;;;;;;1.73;100.00;101591.22;5063039;28;20484;-80
2022/12/07 03:46:16;;;;;;;26.30;19.85;;;;;;;1.74;100.00;101596.44;5065925;28;20032;-80
2022/12/07 03:49:13;;;;;;;30.30;19.80;;;;;;;1.75;100.00;101597.31;5064350;28;20032;-80
2022/12/07 03:51:49;;;;;;;28.48;20.23;;;;;;;1.75;100.00;101587.69;5040697;28;20052;-78
2022/12/07 03:54:23;;;;;;;29.13;19.60;;;;;;;1.84;100.00;101609.53;5062495;28;20029;-79
2022/12/07 03:56:50;;;;;;;24.27;18.98;;;;;;;1.82;100.00;101611.31;5064429;28;20056;-79
2022/12/07 03:59:17;;;;;;;25.27;19.17;;;;;;;1.78;100.00;101604.31;5064974;28;20036;-79
2022/12/07 04:01:44;;;;;;;23.00;19.40;;;;;;;1.77;100.00;101606.06;5067938;28;20082;-80
2022/12/07 04:04:09;;;;;;;24.67;20.15;;;;;;;1.78;100.00;101615.69;5072631;28;20302;-80
2022/12/07 04:06:35;;;;;;;27.92;19.67;;;;;;;1.76;100.00;101601.72;5065188;28;20024;-79
2022/12/07 04:09:00;;;;;;;25.55;20.40;;;;;;;1.78;100.00;101596.44;5064213;28;20078;-80
2022/12/07 04:11:25;;;;;;;29.83;20.48;;;;;;;1.86;100.00;101606.03;5063942;28;20041;-79
2022/12/07 04:16:35;;;;;;;;;;;;;;;1.94;100.00;101609.53;5064801;28;20043;-80
2022/12/07 04:19:00;;;;;;;25.13;18.25;;;;;;;1.94;100.00;101601.66;5065542;28;19912;-79
2022/12/07 04:21:25;;;;;;;25.42;17.67;;;;;;;1.98;100.00;101585.00;5063681;28;20051;-79
2022/12/07 04:23:51;;;;;;;23.35;17.20;;;;;;;1.98;100.00;101587.63;5065256;28;20028;-80
2022/12/07 04:26:16;;;;;;;21.98;17.05;;;;;;;2.03;100.00;101598.09;5062796;28;20075;-80
2022/12/07 04:28:41;;;;;;;24.05;16.30;;;;;;;2.07;100.00;101598.97;5063162;28;20040;-79
2022/12/07 04:31:06;;;;;;;20.85;16.17;;;;;;;2.04;100.00;101591.09;5052098;28;20054;-79
2022/12/07 04:33:32;;;;;;;24.40;17.13;;;;;;;2.06;100.00;101584.09;5055696;28;20106;-79
2022/12/07 04:35:57;;;;;;;20.92;16.40;;;;;;;2.12;100.00;101589.31;5064526;28;20025;-80
2022/12/07 04:38:22;;;;;;;21.02;15.63;;;;;;;2.10;100.00;101589.34;5064866;28;20049;-80
2022/12/07 04:40:48;;;;;;;23.85;16.45;;;;;;;2.09;100.00;101587.59;5065189;28;20469;-80
2022/12/07 04:43:13;;;;;;;22.00;16.70;;;;;;;2.11;100.00;101585.81;5064800;28;20081;-79
2022/12/07 04:45:38;;;;;;;23.17;16.83;;;;;;;2.10;100.00;101586.72;5059602;28;20403;-79
2022/12/07 04:48:04;;;;;;;21.70;16.83;;;;;;;2.11;100.00;101583.19;5060244;28;20104;-79
2022/12/07 04:50:29;;;;;;;23.75;17.45;;;;;;;2.14;100.00;101577.94;5061118;28;20497;-82
2022/12/07 04:52:54;;;;;;;23.35;16.33;;;;;;;2.14;100.00;101577.06;5061643;28;20462;-80
2022/12/07 04:55:20;;;;;;;29.30;17.23;;;;;;;2.17;100.00;101582.28;5063752;28;20039;-80
2022/12/07 04:57:45;;;;;;;24.40;16.40;;;;;;;2.09;100.00;101566.59;5062409;28;20032;-80
2022/12/07 05:00:11;;;;;;;28.45;17.20;;;;;;;2.16;100.00;101586.66;5062971;28;20795;-80
2022/12/07 05:02:36;;;;;;;23.77;16.48;;;;;;;2.14;100.00;101577.94;5067070;28;20090;-80
2022/12/07 05:05:01;;;;;;;27.38;16.73;;;;;;;2.22;100.00;101580.53;5067908;28;20203;-80
2022/12/07 05:07:27;;;;;;;27.13;17.02;;;;;;;2.24;100.00;101584.88;5064609;28;20068;-80
2022/12/07 05:09:52;;;;;;;25.55;16.85;;;;;;;2.24;100.00;101581.38;5067597;28;20492;-80
2022/12/07 05:12:17;;;;;;;23.25;16.20;;;;;;;2.20;100.00;101583.16;5063822;28;20028;-80
2022/12/07 05:14:42;;;;;;;19.70;15.75;;;;;;;2.23;100.00;101577.03;5068504;28;20469;-81
2022/12/07 05:17:08;;;;;;;19.10;15.07;;;;;;;2.20;100.00;101569.16;5069161;28;20031;-81
2022/12/07 05:19:33;;;;;;;23.95;15.57;;;;;;;2.21;100.00;101586.66;5069258;28;20031;-81
2022/12/07 05:21:58;;;;;;;23.13;15.65;;;;;;;2.18;100.00;101584.06;5066560;28;20051;-80
2022/12/07 05:24:24;;;;;;;21.05;15.70;;;;;;;2.18;100.00;101582.31;5057011;28;20036;-80
2022/12/07 05:26:49;;;;;;;28.20;15.43;;;;;;;2.20;100.00;101583.16;5066850;28;20021;-80
2022/12/07 05:29:16;;;;;;;23.38;15.93;;;;;;;2.19;100.00;101572.66;5067316;28;20069;-80
2022/12/07 05:31:41;;;;;;;24.83;15.25;;;;;;;2.17;100.00;101579.66;5065748;28;20029;-80
2022/12/07 05:34:07;;;;;;;21.20;14.50;;;;;;;2.13;100.00;101577.94;5067518;28;20547;-80
2022/12/07 05:36:32;;;;;;;18.83;14.80;;;;;;;2.11;100.00;101574.44;5067662;28;20032;-80
2022/12/07 05:38:58;;;;;;;22.23;14.27;;;;;;;2.11;100.00;101579.72;5068526;28;20038;-80
2022/12/07 05:44:07;;;;;;;;;;;;;;;2.09;100.00;101576.19;5054158;28;20037;-80
2022/12/07 05:46:33;;;;;;;18.17;13.85;;;;;;;2.02;100.00;101569.25;5066522;28;20007;-78
2022/12/07 05:48:58;;;;;;;19.23;13.80;;;;;;;2.03;100.00;101578.84;5068285;28;20036;-79
2022/12/07 05:51:24;;;;;;;19.35;13.13;;;;;;;1.98;100.00;101571.00;5066071;28;20028;-81
2022/12/07 05:53:49;;;;;;;18.35;13.35;;;;;;;1.95;100.00;101561.38;5068078;28;20016;-80
2022/12/07 05:56:15;;;;;;;17.65;12.50;;;;;;;1.93;100.00;101560.53;5066084;28;20028;-79
2022/12/07 06:01:24;;;;;;;15.93;10.68;;;;;;;1.84;100.00;101560.56;5066208;28;20217;-80
2022/12/07 06:03:49;;;;;;;16.75;10.98;;;;;;;1.73;100.00;101565.84;5066320;28;20413;-80
2022/12/07 06:06:15;;;;;;;18.23;11.02;;;;;;;1.67;100.00;101555.38;5066251;28;20020;-80
2022/12/07 06:08:40;;;;;;;21.00;11.60;;;;;;;1.61;100.00;101571.13;5060864;28;20470;-80
2022/12/07 06:13:49;;;;;;;26.75;12.90;;;;;;;1.47;100.00;101568.53;5060392;28;20089;-80
2022/12/07 06:16:14;;;;;;;20.77;12.98;;;;;;;1.46;100.00;101574.66;5064122;28;20361;-81
2022/12/07 06:18:39;;;;;;;22.67;12.30;;;;;;;1.39;100.00;101566.78;5064759;28;20044;-81
2022/12/07 06:21:05;;;;;;;20.10;12.55;;;;;;;1.32;100.00;101576.41;5062476;28;20086;-81
2022/12/07 06:23:30;;;;;;;20.20;11.52;;;;;;;1.21;100.00;101575.53;5067239;28;20051;-80
2022/12/07 06:25:55;;;;;;;18.35;11.73;;;;;;;1.16;100.00;101577.28;5066689;28;20074;-80
2022/12/07 06:28:21;;;;;;;18.58;11.45;;;;;;;1.11;100.00;101576.44;5066113;28;20024;-80
2022/12/07 06:30:46;;;;;;;16.58;11.30;;;;;;;1.05;100.00;101574.69;5065158;28;20119;-80
2022/12/07 06:33:11;;;;;;;14.27;11.27;;;;;;;0.98;100.00;101568.56;5067044;28;20069;-80
2022/12/07 06:35:36;;;;;;;14.05;11.32;;;;;;;0.99;100.00;101574.69;5066581;28;20481;-80
2022/12/07 06:38:02;;;;;;;18.17;11.45;;;;;;;0.94;100.00;101573.81;5056258;28;20029;-80
2022/12/07 06:40:27;;;;;;;14.15;11.38;;;;;;;0.95;100.00;101570.31;5059188;28;20608;-81
2022/12/07 06:42:52;;;;;;;18.08;11.95;;;;;;;0.98;100.00;101570.31;5061109;28;20563;-79
2022/12/07 06:45:18;;;;;;;16.75;13.00;;;;;;;1.04;100.00;101570.31;5049238;28;20119;-81
2022/12/07 06:47:43;;;;;;;22.00;13.25;;;;;;;1.08;100.00;101576.41;5065269;28;20033;-81
2022/12/07 06:50:09;;;;;;;19.33;12.82;;;;;;;1.10;100.00;101577.31;5063679;28;20035;-82
2022/12/07 06:52:34;;;;;;;15.88;12.10;;;;;;;1.11;100.00;101574.69;5063827;28;20039;-80
2022/12/07 06:54:59;;;;;;;16.90;12.10;;;;;;;1.18;100.00;101581.69;5059384;28;20075;-80
2022/12/07 06:57:25;;;;;;;19.75;12.82;;;;;;;1.20;100.00;101584.28;5056467;28;20485;-80
2022/12/07 06:59:51;;;;;;;16.65;11.77;;;;;;;1.23;100.00;101574.69;5063190;28;20028;-80
2022/12/07 07:02:16;;;;;;;18.85;12.68;;;;;;;1.30;100.00;101575.56;5061419;28;20441;-81
2022/12/07 07:04:42;;;;;;;17.27;13.48;;;;;;;1.38;100.00;101578.13;5062993;28;20043;-81
2022/12/07 07:07:07;;;;;;;18.73;14.57;;;;;;;1.45;100.00;101572.88;5065032;28;20477;-80
2022/12/07 07:09:32;;;;;;;16.55;14.27;;;;;;;1.45;100.00;101575.50;5064528;28;20382;-81
2022/12/07 07:11:58;;;;;;;19.60;14.27;;;;;;;1.47;100.00;101573.78;5069212;28;20138;-81
2022/12/07 07:14:23;;;;;;;19.42;14.18;;;;;;;1.53;100.00;101579.88;5068457;28;20032;-80
2022/12/07 07:16:48;;;;;;;19.25;13.75;;;;;;;1.51;100.00;101585.16;5062968;28;20141;-80
2022/12/07 07:19:13;;;;;;;20.20;13.75;;;;;;;1.46;100.00;101579.91;5065168;28;20012;-80
2022/12/07 07:21:39;;;;;;;20.75;13.63;;;;;;;1.44;100.00;101584.25;5062999;28;20032;-80
2022/12/07 07:24:04;;;;;;;19.38;13.75;;;;;;;1.42;100.00;101582.50;5064196;28;20033;-80
2022/12/07 07:26:30;;;;;;;19.08;13.88;;;;;;;1.37;100.00;101586.91;5063386;28;20434;-82
2022/12/07 07:28:55;;;;;;;22.42;15.95;;;;;;;1.37;100.00;101587.75;5062298;28;20119;-81
2022/12/07 07:31:20;;;;;;;18.95;14.88;;;;;;;1.39;100.00;101580.78;5062707;28;20035;-81
2022/12/07 07:33:46;;;;;;;17.70;15.15;;;;;;;1.41;100.00;101583.38;5069031;28;20075;-80
2022/12/07 07:36:12;;;;;;;23.95;17.80;;;;;;;1.39;100.00;101575.53;5072833;28;20024;-82
2022/12/07 07:38:37;;;;;;;19.23;14.90;;;;;;;1.38;100.00;101572.91;5063179;28;20032;-80
2022/12/07 07:41:03;;;;;;;19.20;16.77;;;;;;;1.35;100.00;101578.16;5055868;28;20033;-80
2022/12/07 07:43:28;;;;;;;19.08;14.93;;;;;;;1.35;100.00;101589.53;5050222;28;20494;-81
2022/12/07 07:45:54;;;;;;;16.85;14.10;;;;;;;1.28;100.00;101594.78;5067033;28;20495;-80
2022/12/07 07:48:19;;;;;;;26.65;15.10;;;;;;;1.29;100.00;101597.38;5065344;28;20492;-81
2022/12/07 07:50:44;;;;;;;23.77;15.73;;;;;;;1.33;100.00;101591.25;5063872;28;20056;-80
2022/12/07 07:53:10;;;;;;;20.38;15.02;;;;;;;1.45;100.00;101596.50;5065184;28;20017;-80
2022/12/07 07:55:35;;;;;;;24.95;15.88;;;;;;;1.54;100.00;101594.75;5064506;28;20036;-80
2022/12/07 07:58:00;;;;;;;25.10;15.80;;;;;;;1.61;100.00;101601.72;5065153;28;20153;-80
2022/12/07 08:00:26;;;;;;;21.25;16.08;;;;;;;1.67;100.00;101586.84;5050253;28;20582;-81
2022/12/07 08:02:51;;;;;;;18.53;14.63;;;;;;;1.74;100.00;101595.56;5063512;28;20107;-80
2022/12/07 08:05:16;;;;;;;23.15;15.10;;;;;;;1.77;100.00;101598.19;5062099;28;20016;-80
2022/12/07 08:07:42;;;;;;;16.48;13.82;;;;;;;1.77;100.00;101587.69;5055398;28;20103;-80
2022/12/07 08:10:10;;;;;;;17.45;14.30;;;;;;;1.87;100.00;101596.41;5059948;28;20480;-80
2022/12/07 08:13:10;;;;;;;19.98;13.23;;;;;;;1.90;100.00;101597.28;5053201;28;20063;-80
2022/12/07 08:15:28;;;;;;;17.15;12.35;;;;;;;1.92;100.00;101600.78;5059959;28;20471;-79
2022/12/07 08:17:53;;;;;;;13.98;11.55;;;;;;;1.94;100.00;101600.78;5065478;28;20518;-84
2022/12/07 08:20:19;;;;;;;18.35;12.35;;;;;;;2.00;100.00;101595.50;5065686;28;20085;-84
2022/12/07 08:22:44;;;;;;;17.20;12.40;;;;;;;2.05;100.00;101601.63;5067050;28;20031;-84
2022/12/07 08:25:09;;;;;;;19.45;12.25;;;;;;;2.10;100.00;101594.59;5066329;28;20028;-86
2022/12/07 08:27:35;;;;;;;19.15;12.32;;;;;;;2.13;100.00;101602.47;5060126;28;20031;-84
2022/12/07 08:30:00;;;;;;;15.85;11.13;;;;;;;2.14;100.00;101603.34;5058887;28;20024;-85
2022/12/07 08:32:25;;;;;;;16.63;12.57;;;;;;;2.12;100.00;101603.31;5065111;28;20131;-86
2022/12/07 08:34:52;;;;;;;17.92;11.65;;;;;;;2.10;100.00;101618.22;5062172;28;20505;-83
2022/12/07 08:37:17;;;;;;;17.35;11.68;;;;;;;2.05;100.00;101624.34;5063842;28;20024;-85
2022/12/07 08:39:42;;;;;;;14.10;11.18;;;;;;;1.94;100.00;101620.03;5059157;28;20029;-83
2022/12/07 08:42:08;;;;;;;16.73;12.05;;;;;;;1.96;100.00;101626.13;5064625;28;20025;-83
2022/12/07 08:44:33;;;;;;;14.98;10.23;;;;;;;2.02;100.00;101630.50;5056969;28;20107;-83
2022/12/07 08:47:04;;;;;;;15.60;10.80;;;;;;;2.09;100.00;101623.47;5056209;28;20028;-83
2022/12/07 08:49:43;;;;;;;15.73;11.18;;;;;;;2.24;100.00;101626.91;5057713;28;20099;-83
2022/12/07 08:52:08;;;;;;;17.80;11.63;;;;;;;2.38;100.00;101619.00;5063662;28;20139;-83
2022/12/07 08:54:37;;;;;;;20.27;11.43;;;;;;;2.62;100.00;101612.72;5066469;28;20016;-83
2022/12/07 08:57:03;;;;;;;15.95;11.07;;;;;;;2.74;100.00;101604.75;5061682;28;20097;-82
2022/12/07 08:59:28;;;;;;;16.52;10.25;;;;;;;2.95;100.00;101609.00;5064516;28;20469;-82
2022/12/07 09:01:54;;;;;;;14.77;9.40;;;;;;;3.08;100.00;101604.50;5065879;28;20029;-82
2022/12/07 09:04:20;;;;;;;15.95;9.80;;;;;;;3.24;100.00;101608.75;5069181;28;20461;-82
2022/12/07 09:06:45;;;;;;;14.65;9.13;;;;;;;3.33;100.00;101613.06;5067668;28;20021;-82
2022/12/07 09:09:13;;;;;;;16.65;9.20;;;;;;;3.32;100.00;101613.97;5063670;28;20025;-82
2022/12/07 09:11:39;;;;;;;13.10;8.52;;;;;;;3.22;100.00;101600.03;5065857;28;20510;-82
2022/12/07 09:14:04;;;;;;;14.60;8.13;;;;;;;3.24;100.00;101613.16;5069758;28;20028;-82
2022/12/07 09:16:29;;;;;;;12.20;8.02;;;;;;;3.15;100.00;101602.72;5063681;28;20032;-83
2022/12/07 09:18:55;;;;;;;13.23;8.10;;;;;;;3.13;100.00;101604.47;5056392;28;20151;-83
2022/12/07 09:21:20;;;;;;;13.70;8.57;;;;;;;3.07;100.00;101597.50;5057070;28;20127;-83
2022/12/07 09:23:46;;;;;;;11.80;7.35;;;;;;;3.06;100.00;101608.06;5068318;28;20028;-82
2022/12/07 09:26:11;;;;;;;17.95;8.05;;;;;;;3.11;100.00;101601.00;5064475;28;20029;-82
2022/12/07 09:28:36;;;;;;;14.27;8.60;;;;;;;3.20;100.00;101600.91;5065598;28;20290;-82
2022/12/07 09:31:03;;;;;;;11.55;8.20;;;;;;;3.32;100.00;101611.34;5068143;28;20024;-82
2022/12/07 09:33:28;;;;;;;14.23;7.68;;;;;;;3.35;100.00;101598.16;5068519;28;20041;-81
2022/12/07 09:35:53;;;;;;;11.70;7.43;;;;;;;3.44;100.00;101600.69;5067480;28;20602;-83
2022/12/07 09:38:19;;;;;;;11.75;7.80;;;;;;;3.49;100.00;101606.78;5066636;28;20457;-83
2022/12/07 09:40:46;;;;;;;16.13;7.93;;;;;;;3.54;100.00;101611.13;5067874;28;20474;-82
2022/12/07 09:43:15;;;;;;;9.82;7.03;;;;;;;3.53;100.00;101602.38;5067210;28;20037;-84
2022/12/07 09:45:41;;;;;;;10.38;6.78;;;;;;;3.60;100.00;101611.97;5063404;28;20059;-83
2022/12/07 09:48:17;;;;;;;14.95;7.43;;;;;;;3.58;100.00;101608.44;5062185;28;20040;-83
2022/12/07 09:50:42;;;;;;;12.77;6.88;;;;;;;3.49;100.00;101605.91;5076813;28;20119;-82
2022/12/07 09:53:14;;;;;;;11.00;6.75;;;;;;;3.39;100.00;101613.03;5084614;28;20028;-83
2022/12/07 09:55:41;;;;;;;10.38;6.93;;;;;;;3.25;100.00;101607.00;5067328;28;20074;-83
2022/12/07 09:58:19;;;;;;;16.33;8.48;;;;;;;3.18;100.00;101610.59;5064978;28;20032;-83
2022/12/07 10:00:45;;;;;;;13.05;8.05;;;;;;;3.23;100.00;101606.16;5067223;28;20028;-82
2022/12/07 10:03:11;;;;;;;17.27;8.10;;;;;;;3.39;100.00;101609.53;5066754;28;20028;-83
2022/12/07 10:05:42;;;;;;;15.48;7.88;;;;;;;3.47;100.00;101600.69;5051162;28;20494;-83
2022/12/07 10:08:11;;;;;;;15.75;7.55;;;;;;;3.62;100.00;101601.41;5049454;28;20056;-83
2022/12/07 10:10:39;;;;;;;14.15;9.23;;;;;;;3.72;100.00;101596.03;5048307;28;20154;-84
2022/12/07 10:13:10;;;;;;;13.85;8.48;;;;;;;3.80;100.00;101595.94;5067317;28;20069;-83
2022/12/07 10:15:44;;;;;;;13.10;6.88;;;;;;;3.93;100.00;101597.56;5066170;28;20024;-84
2022/12/07 10:18:41;;;;;;;14.60;7.75;;;;;;;4.06;100.00;101595.66;5065243;28;20036;-84
2022/12/07 10:21:13;;;;;;;12.20;7.57;;;;;;;4.12;100.00;101589.44;5067281;28;20136;-84
2022/12/07 10:23:58;;;;;;;15.20;6.60;;;;;;;4.03;100.00;101590.41;5064561;28;20341;-83
2022/12/07 10:26:31;;;;;;;11.35;6.53;;;;;;;3.81;100.00;101579.28;5065451;28;20024;-84
2022/12/07 10:29:15;;;;;;;11.70;6.70;;;;;;;3.70;100.00;101586.41;5054432;28;20040;-83
2022/12/07 10:31:41;;;;;;;;;;;;;;;3.67;100.00;101579.41;5066152;28;20024;-83
2022/12/07 10:34:23;;;;;;;12.82;7.22;;;;;;;3.74;100.00;101577.59;5065652;28;20278;-84
2022/12/07 10:36:49;;;;;;;12.65;7.85;;;;;;;4.00;100.00;101575.50;5046934;28;20390;-84
2022/12/07 10:39:19;;;;;;;9.73;7.55;;;;;;;4.23;100.00;101564.69;5061226;28;20032;-83
2022/12/07 10:41:56;;;;;;;14.27;8.38;;;;;;;4.37;100.00;101551.31;5067718;28;20024;-83
2022/12/07 10:44:25;;;;;;;13.95;8.05;;;;;;;4.69;100.00;101558.78;5067558;28;20025;-84
2022/12/07 10:47:01;;;;;;;13.75;7.60;;;;;;;4.86;100.00;101562.91;5067383;28;20033;-84
2022/12/07 10:49:48;;;;;;;10.57;6.70;;;;;;;5.06;100.00;101557.28;5067063;28;20134;-84
2022/12/07 10:52:16;;;;;;;13.73;6.97;;;;;;;5.14;100.00;101551.03;5068416;28;20067;-84
2022/12/07 10:55:08;;;;;;;9.75;6.18;;;;;;;5.12;100.00;101551.94;5066860;28;20028;-84
2022/12/07 10:57:42;;;;;;;10.40;6.38;;;;;;;4.92;100.00;101546.97;5066246;28;20028;-84
2022/12/07 11:00:15;;;;;;;8.35;6.05;;;;;;;4.71;100.00;101532.38;5064566;28;20176;-84
2022/12/07 11:03:12;;;;;;;11.60;7.07;;;;;;;4.68;100.00;101545.59;5065792;28;20032;-84
2022/12/07 11:06:14;;;;;;;13.63;7.50;;;;;;;4.56;100.00;101537.91;5065544;28;20078;-84
2022/12/07 11:08:59;;;;;;;11.55;7.32;;;;;;;4.44;100.00;101533.66;5064803;28;20040;-83
2022/12/07 11:12:00;;;;;;;10.60;6.97;;;;;;;4.42;100.00;101525.78;5068490;28;20111;-83
2022/12/07 11:14:36;;;;;;;14.02;6.90;;;;;;;4.62;100.00;101527.25;5066504;28;20032;-83
2022/12/07 11:17:09;;;;;;;9.55;5.95;;;;;;;4.76;100.00;101517.34;5066730;28;20024;-84
2022/12/07 11:19:50;;;;;;;9.13;5.97;;;;;;;4.87;100.00;101525.97;5066293;28;20034;-85
2022/12/07 11:22:46;;;;;;;8.20;5.45;;;;;;;4.96;100.00;101528.44;5082324;28;20043;-84
2022/12/07 11:25:22;;;;;;;10.63;6.55;;;;;;;5.20;100.00;101513.09;5070482;28;20016;-84
2022/12/07 11:28:03;;;;;;;11.68;6.50;;;;;;;5.47;100.00;101514.34;5069020;28;20059;-84
2022/12/07 11:30:42;;;;;;;10.63;5.38;;;;;;;5.56;100.00;101506.25;5074459;28;20112;-84
2022/12/07 11:33:17;;;;;;;9.43;4.60;;;;;;;5.61;100.00;101511.44;5075540;28;20036;-83